createdAt,value
2018-07-26T00:00:36.981Z,9.93
2018-07-26T00:03:05.414Z,7.57
2018-07-26T00:05:34.008Z,7.30
2018-07-26T00:08:03.212Z,7.90
2018-07-26T00:10:31.836Z,6.30
2018-07-26T00:13:00.344Z,6.73
2018-07-26T00:15:29.731Z,6.40
2018-07-26T00:18:04.917Z,6.10
2018-07-26T00:20:33.395Z,6.17
2018-07-26T00:23:10.903Z,7.43
2018-07-26T00:25:48.111Z,6.30
2018-07-26T00:28:16.979Z,9.50
2018-07-26T00:30:45.683Z,5.70
2018-07-26T00:33:14.264Z,5.20
2018-07-26T00:35:42.749Z,6.50
2018-07-26T00:38:21.400Z,5.13
2018-07-26T00:40:51.555Z,6.93
2018-07-26T00:43:21.989Z,6.10
2018-07-26T00:45:50.524Z,6.00
2018-07-26T00:48:18.916Z,5.80
2018-07-26T00:50:47.624Z,7.60
2018-07-26T00:53:15.711Z,4.77
2018-07-26T00:55:44.107Z,4.93
2018-07-26T00:58:12.995Z,4.67
2018-07-26T01:00:41.588Z,5.80
2018-07-26T01:03:10.730Z,5.07
2018-07-26T01:05:39.252Z,5.40
2018-07-26T01:08:07.612Z,4.57
2018-07-26T01:10:35.721Z,6.20
2018-07-26T01:13:04.129Z,6.97
2018-07-26T01:15:32.552Z,5.70
2018-07-26T01:18:00.920Z,4.73
2018-07-26T01:20:29.313Z,5.60
2018-07-26T01:22:58.048Z,6.07
2018-07-26T01:25:26.584Z,5.77
2018-07-26T01:27:55.096Z,7.77
2018-07-26T01:30:23.650Z,5.80
2018-07-26T01:32:52.316Z,4.73
2018-07-26T01:35:20.695Z,6.30
2018-07-26T01:37:49.144Z,6.27
2018-07-26T01:40:17.660Z,5.17
2018-07-26T01:42:57.383Z,5.03
2018-07-26T01:45:25.926Z,5.43
2018-07-26T01:47:54.384Z,7.93
2018-07-26T01:50:22.805Z,5.17
2018-07-26T01:52:51.232Z,5.37
2018-07-26T01:55:19.608Z,6.37
2018-07-26T01:57:48.118Z,5.57
2018-07-26T02:00:16.637Z,5.67
2018-07-26T02:02:45.036Z,6.50
2018-07-26T02:05:13.391Z,5.67
2018-07-26T02:07:41.760Z,5.37
2018-07-26T02:10:10.126Z,6.80
2018-07-26T02:12:38.635Z,5.07
2018-07-26T02:15:07.076Z,7.07
2018-07-26T02:17:35.438Z,5.00
2018-07-26T02:20:03.968Z,5.53
2018-07-26T02:22:32.412Z,7.03
2018-07-26T02:25:00.811Z,6.13
2018-07-26T02:27:29.216Z,5.17
2018-07-26T02:29:57.624Z,5.27
2018-07-26T02:32:26.013Z,5.63
2018-07-26T02:34:54.389Z,5.40
2018-07-26T02:37:22.872Z,5.73
2018-07-26T02:39:51.387Z,8.53
2018-07-26T02:42:19.752Z,5.17
2018-07-26T02:44:48.120Z,6.50
2018-07-26T02:47:17.177Z,6.50
2018-07-26T02:49:45.564Z,5.53
2018-07-26T02:52:14.089Z,5.13
2018-07-26T02:54:42.527Z,5.20
2018-07-26T02:57:10.893Z,5.70
2018-07-26T02:59:39.257Z,4.43
2018-07-26T03:02:07.980Z,5.07
2018-07-26T03:04:36.349Z,4.47
2018-07-26T03:07:04.861Z,5.43
2018-07-26T03:09:33.205Z,5.00
2018-07-26T03:12:01.566Z,7.00
2018-07-26T03:14:34.238Z,5.37
2018-07-26T03:17:02.597Z,4.47
2018-07-26T03:19:30.960Z,4.03
2018-07-26T03:21:59.295Z,5.70
2018-07-26T03:24:27.449Z,4.20
2018-07-26T03:26:55.957Z,4.67
2018-07-26T03:29:24.323Z,5.93
2018-07-26T03:31:52.802Z,7.33
2018-07-26T03:34:21.223Z,4.97
2018-07-26T03:36:49.639Z,4.50
2018-07-26T03:39:18.108Z,5.17
2018-07-26T03:41:46.479Z,4.53
2018-07-26T03:44:15.557Z,4.20
2018-07-26T03:46:44.099Z,4.90
2018-07-26T03:49:12.722Z,6.00
2018-07-26T03:51:41.144Z,6.80
2018-07-26T03:54:09.545Z,4.70
2018-07-26T03:56:37.941Z,6.23
2018-07-26T03:59:06.356Z,4.83
2018-07-26T04:01:34.728Z,5.17
2018-07-26T04:04:02.799Z,4.33
2018-07-26T04:06:30.871Z,6.50
2018-07-26T04:08:58.973Z,6.20
2018-07-26T04:11:27.388Z,8.50
2018-07-26T04:13:55.811Z,5.43
2018-07-26T04:16:24.266Z,10.03
2018-07-26T04:18:52.700Z,6.13
2018-07-26T04:21:21.118Z,6.50
2018-07-26T04:23:50.040Z,4.90
2018-07-26T04:26:19.096Z,4.37
2018-07-26T04:28:47.548Z,4.70
2018-07-26T04:31:16.053Z,7.30
2018-07-26T04:33:44.488Z,5.10
2018-07-26T04:36:12.857Z,4.90
2018-07-26T04:38:41.239Z,4.87
2018-07-26T04:41:09.651Z,4.67
2018-07-26T04:43:38.154Z,4.73
2018-07-26T04:46:06.948Z,4.87
2018-07-26T04:48:36.512Z,5.03
2018-07-26T04:51:05.482Z,5.00
2018-07-26T04:53:33.889Z,5.13
2018-07-26T04:56:02.384Z,5.47
2018-07-26T04:58:31.023Z,5.63
2018-07-26T05:00:59.398Z,5.67
2018-07-26T05:03:28.184Z,6.27
2018-07-26T05:05:56.545Z,5.53
2018-07-26T05:08:24.900Z,5.80
2018-07-26T05:10:53.380Z,6.13
2018-07-26T05:13:21.733Z,6.97
2018-07-26T05:15:50.401Z,6.90
2018-07-26T05:18:18.773Z,6.80
2018-07-26T05:20:47.421Z,9.83
2018-07-26T05:23:15.809Z,7.50
2018-07-26T05:25:44.332Z,6.77
2018-07-26T05:28:12.747Z,5.00
2018-07-26T05:30:41.472Z,6.63
2018-07-26T05:33:10.080Z,5.97
2018-07-26T05:35:38.571Z,6.83
2018-07-26T05:38:06.969Z,10.77
2018-07-26T05:40:35.325Z,7.73
2018-07-26T05:43:03.714Z,5.40
2018-07-26T05:45:32.228Z,8.13
2018-07-26T05:48:00.761Z,7.27
2018-07-26T05:50:29.368Z,6.87
2018-07-26T05:52:59.270Z,8.10
2018-07-26T05:55:28.730Z,7.50
2018-07-26T05:57:57.219Z,13.30
2018-07-26T06:00:25.583Z,8.03
2018-07-26T06:02:54.083Z,8.67
2018-07-26T06:05:22.517Z,7.67
2018-07-26T06:07:51.001Z,9.73
2018-07-26T06:10:19.464Z,14.13
2018-07-26T06:12:47.885Z,10.07
2018-07-26T06:15:16.344Z,7.80
2018-07-26T06:17:44.729Z,8.60
2018-07-26T06:20:13.098Z,10.60
2018-07-26T06:22:41.515Z,8.97
2018-07-26T06:25:10.353Z,7.70
2018-07-26T06:27:39.013Z,7.90
2018-07-26T06:30:09.625Z,10.53
2018-07-26T06:32:38.013Z,6.37
2018-07-26T06:35:07.312Z,9.03
2018-07-26T06:37:35.916Z,5.90
2018-07-26T06:40:04.961Z,6.57
2018-07-26T06:42:33.648Z,10.43
2018-07-26T06:45:02.004Z,6.63
2018-07-26T06:47:30.499Z,7.10
2018-07-26T06:49:59.538Z,7.73
2018-07-26T06:52:27.908Z,8.50
2018-07-26T06:54:56.897Z,11.83
2018-07-26T06:57:25.788Z,9.37
2018-07-26T06:59:54.472Z,10.10
2018-07-26T07:02:22.872Z,7.97
2018-07-26T07:04:51.346Z,12.80
2018-07-26T07:07:19.699Z,7.10
2018-07-26T07:09:48.316Z,10.50
2018-07-26T07:12:16.839Z,8.43
2018-07-26T07:14:45.794Z,7.37
2018-07-26T07:17:14.900Z,6.17
2018-07-26T07:19:43.419Z,10.73
2018-07-26T07:22:11.863Z,12.90
2018-07-26T07:24:40.251Z,8.30
2018-07-26T07:27:08.608Z,13.03
2018-07-26T07:29:36.988Z,10.67
2018-07-26T07:32:05.742Z,9.07
2018-07-26T07:34:34.186Z,7.67
2018-07-26T07:37:02.531Z,9.60
2018-07-26T07:39:31.083Z,8.43
2018-07-26T07:41:59.569Z,9.30
2018-07-26T07:44:27.915Z,9.33
2018-07-26T07:46:56.349Z,9.10
2018-07-26T07:49:24.704Z,8.43
2018-07-26T07:51:53.200Z,8.23
2018-07-26T07:54:21.598Z,8.17
2018-07-26T07:56:50.036Z,10.13
2018-07-26T07:59:18.427Z,10.83
2018-07-26T08:01:46.837Z,7.43
2018-07-26T08:04:15.900Z,5.80
2018-07-26T08:06:44.343Z,6.53
2018-07-26T08:09:13.104Z,7.83
2018-07-26T08:11:41.501Z,10.30
2018-07-26T08:14:10.563Z,7.17
2018-07-26T08:16:38.900Z,6.73
2018-07-26T08:19:07.704Z,9.33
2018-07-26T08:21:36.157Z,10.30
2018-07-26T08:24:04.719Z,9.50
2018-07-26T08:26:33.472Z,8.83
2018-07-26T08:29:01.917Z,8.97
2018-07-26T08:31:30.328Z,7.87
2018-07-26T08:33:59.022Z,11.10
2018-07-26T08:36:27.756Z,7.27
2018-07-26T08:38:56.763Z,6.73
2018-07-26T08:41:25.483Z,12.13
2018-07-26T08:43:54.073Z,11.57
2018-07-26T08:46:22.548Z,9.07
2018-07-26T08:48:51.127Z,6.97
2018-07-26T08:51:19.815Z,9.87
2018-07-26T08:53:48.928Z,8.03
2018-07-26T08:56:17.457Z,11.03
2018-07-26T08:58:46.591Z,9.40
2018-07-26T09:01:15.013Z,8.90
2018-07-26T09:03:43.876Z,10.13
2018-07-26T09:06:13.060Z,7.03
2018-07-26T09:08:41.476Z,10.23
2018-07-26T09:11:09.856Z,12.83
2018-07-26T09:13:38.452Z,8.27
2018-07-26T09:16:06.787Z,8.87
2018-07-26T09:18:35.136Z,9.80
2018-07-26T09:21:04.564Z,10.83
2018-07-26T09:23:32.983Z,8.80
2018-07-26T09:26:01.337Z,12.60
2018-07-26T09:28:30.403Z,8.73
2018-07-26T09:30:58.894Z,7.03
2018-07-26T09:33:27.293Z,8.90
2018-07-26T09:35:56.294Z,9.20
2018-07-26T09:38:24.708Z,10.63
2018-07-26T09:40:53.312Z,11.60
2018-07-26T09:43:21.751Z,10.83
2018-07-26T09:45:50.120Z,10.60
2018-07-26T09:48:18.468Z,11.60
2018-07-26T09:50:47.083Z,10.40
2018-07-26T09:53:15.572Z,10.37
2018-07-26T09:55:44.573Z,12.70
2018-07-26T09:58:13.086Z,9.10
2018-07-26T10:00:46.931Z,9.80
2018-07-26T10:03:15.336Z,10.30
2018-07-26T10:05:43.924Z,7.07
2018-07-26T10:08:12.692Z,6.50
2018-07-26T10:10:41.324Z,7.30
2018-07-26T10:13:09.688Z,9.00
2018-07-26T10:15:38.264Z,7.97
2018-07-26T10:18:07.144Z,10.00
2018-07-26T10:20:35.484Z,9.07
2018-07-26T10:23:03.971Z,8.77
2018-07-26T10:25:32.325Z,6.57
2018-07-26T10:28:00.824Z,8.87
2018-07-26T10:30:29.332Z,8.23
2018-07-26T10:32:57.752Z,7.90
2018-07-26T10:35:26.388Z,7.70
2018-07-26T10:37:54.839Z,9.57
2018-07-26T10:40:23.285Z,6.97
2018-07-26T10:42:51.675Z,6.27
2018-07-26T10:45:20.052Z,6.17
2018-07-26T10:47:48.442Z,5.27
2018-07-26T10:50:16.920Z,6.57
2018-07-26T10:52:45.370Z,6.47
2018-07-26T10:55:13.806Z,5.37
2018-07-26T10:57:42.281Z,9.57
2018-07-26T11:00:10.736Z,6.80
2018-07-26T11:02:39.375Z,6.73
2018-07-26T11:05:09.428Z,8.87
2018-07-26T11:07:38.324Z,7.43
2018-07-26T11:10:08.417Z,6.30
2018-07-26T11:12:36.868Z,5.87
2018-07-26T11:15:12.818Z,7.13
2018-07-26T11:17:41.262Z,7.13
2018-07-26T11:20:09.650Z,9.33
2018-07-26T11:22:38.104Z,6.90
2018-07-26T11:25:06.513Z,6.70
2018-07-26T11:27:34.908Z,6.97
2018-07-26T11:30:03.331Z,7.90
2018-07-26T11:32:32.440Z,8.13
2018-07-26T11:35:00.827Z,7.30
2018-07-26T11:37:29.225Z,5.33
2018-07-26T11:39:57.633Z,10.23
2018-07-26T11:42:26.174Z,7.20
2018-07-26T11:44:54.686Z,6.80
2018-07-26T11:47:23.661Z,6.60
2018-07-26T11:49:52.107Z,6.23
2018-07-26T11:52:20.469Z,4.80
2018-07-26T11:54:49.545Z,7.10
2018-07-26T11:57:17.995Z,7.57
2018-07-26T11:59:46.521Z,5.80
2018-07-26T12:02:15.204Z,6.90
2018-07-26T12:04:43.684Z,6.57
2018-07-26T12:07:12.583Z,7.03
2018-07-26T12:09:41.059Z,4.43
2018-07-26T12:12:10.681Z,3.90
2018-07-26T12:14:39.672Z,7.40
2018-07-26T12:17:08.176Z,7.43
2018-07-26T12:19:37.071Z,5.30
2018-07-26T12:22:05.681Z,7.03
2018-07-26T12:24:35.379Z,7.70
2018-07-26T12:27:04.567Z,8.23
2018-07-26T12:29:32.908Z,4.70
2018-07-26T12:32:01.493Z,6.60
2018-07-26T12:34:30.506Z,4.97
2018-07-26T12:36:59.276Z,7.07
2018-07-26T12:39:28.032Z,5.43
2018-07-26T12:41:56.505Z,4.50
2018-07-26T12:44:24.892Z,9.07
2018-07-26T12:46:53.320Z,5.83
2018-07-26T12:49:21.674Z,10.73
2018-07-26T12:51:50.089Z,7.27
2018-07-26T12:54:18.488Z,4.93
2018-07-26T12:56:46.849Z,4.37
2018-07-26T12:59:15.396Z,6.77
2018-07-26T13:01:44.218Z,4.90
2018-07-26T13:04:12.635Z,5.20
2018-07-26T13:06:41.104Z,6.67
2018-07-26T13:09:10.380Z,5.70
2018-07-26T13:11:39.009Z,3.80
2018-07-26T13:14:08.043Z,6.47
2018-07-26T13:16:36.424Z,8.17
2018-07-26T13:19:04.888Z,5.20
2018-07-26T13:21:33.272Z,5.43
2018-07-26T13:24:01.718Z,4.20
2018-07-26T13:26:30.323Z,6.43
2018-07-26T13:28:58.847Z,6.70
2018-07-26T13:31:27.216Z,4.03
2018-07-26T13:33:55.680Z,4.97
2018-07-26T13:36:24.224Z,4.17
2018-07-26T13:38:52.607Z,4.80
2018-07-26T13:41:21.117Z,6.43
2018-07-26T13:43:49.532Z,9.43
2018-07-26T13:46:18.032Z,4.93
2018-07-26T13:48:46.636Z,8.77
2018-07-26T13:51:15.032Z,8.43
2018-07-26T13:53:43.431Z,6.83
2018-07-26T13:56:11.935Z,4.97
2018-07-26T13:58:40.380Z,7.67
2018-07-26T14:01:08.797Z,7.60
2018-07-26T14:03:37.189Z,4.60
2018-07-26T14:06:05.550Z,8.83
2018-07-26T14:08:33.912Z,7.17
2018-07-26T14:11:02.524Z,4.70
2018-07-26T14:13:30.962Z,5.30
2018-07-26T14:15:59.549Z,7.27
2018-07-26T14:18:28.008Z,5.13
2018-07-26T14:20:56.402Z,5.00
2018-07-26T14:23:30.172Z,6.40
2018-07-26T14:25:58.705Z,5.27
2018-07-26T14:28:27.243Z,5.20
2018-07-26T14:30:55.759Z,6.70
2018-07-26T14:33:24.133Z,4.80
2018-07-26T14:35:52.652Z,9.00
2018-07-26T14:38:21.860Z,6.33
2018-07-26T14:40:50.319Z,5.03
2018-07-26T14:43:18.725Z,5.30
2018-07-26T14:45:47.169Z,7.13
2018-07-26T14:48:15.585Z,5.10
2018-07-26T14:50:44.225Z,7.77
2018-07-26T14:53:12.724Z,8.07
2018-07-26T14:55:41.304Z,5.73
2018-07-26T14:58:09.716Z,5.23
2018-07-26T15:00:38.218Z,11.47
2018-07-26T15:03:06.592Z,6.40
2018-07-26T15:05:34.999Z,6.67
2018-07-26T15:08:03.841Z,6.60
2018-07-26T15:10:32.252Z,9.00
2018-07-26T15:13:00.690Z,6.37
2018-07-26T15:15:29.117Z,6.67
2018-07-26T15:17:57.479Z,6.77
2018-07-26T15:20:26.001Z,9.03
2018-07-26T15:22:54.616Z,9.10
2018-07-26T15:25:26.168Z,5.70
2018-07-26T15:27:55.652Z,5.17
2018-07-26T15:30:24.278Z,8.23
2018-07-26T15:32:53.601Z,8.73
2018-07-26T15:35:22.001Z,6.30
2018-07-26T15:37:51.280Z,5.50
2018-07-26T15:40:20.217Z,5.40
2018-07-26T15:42:48.616Z,6.03
2018-07-26T15:45:17.121Z,6.80
2018-07-26T15:47:46.076Z,6.77
2018-07-26T15:50:14.661Z,7.57
2018-07-26T15:52:43.068Z,6.43
2018-07-26T15:55:11.488Z,5.30
2018-07-26T15:57:40.581Z,6.27
2018-07-26T16:00:11.031Z,7.73
2018-07-26T16:02:39.641Z,4.90
2018-07-26T16:05:08.584Z,6.13
2018-07-26T16:07:37.546Z,5.90
2018-07-26T16:10:07.548Z,5.67
2018-07-26T16:12:36.089Z,5.37
2018-07-26T16:15:07.179Z,7.23
2018-07-26T16:17:35.884Z,5.20
2018-07-26T16:20:04.911Z,6.17
2018-07-26T16:22:33.560Z,5.90
2018-07-26T16:25:02.368Z,9.73
2018-07-26T16:27:30.888Z,8.80
2018-07-26T16:29:59.317Z,5.20
2018-07-26T16:32:27.831Z,7.03
2018-07-26T16:34:56.302Z,7.43
2018-07-26T16:37:24.683Z,9.40
2018-07-26T16:39:54.807Z,7.23
2018-07-26T16:42:29.844Z,5.17
2018-07-26T16:44:58.723Z,6.43
2018-07-26T16:47:28.332Z,6.73
2018-07-26T16:49:57.744Z,5.27
2018-07-26T16:52:27.481Z,6.23
2018-07-26T16:54:56.660Z,5.43
2018-07-26T16:57:26.084Z,9.33
2018-07-26T16:59:55.420Z,5.20
2018-07-26T17:02:24.128Z,5.37
2018-07-26T17:04:52.767Z,6.00
2018-07-26T17:07:21.276Z,5.07
2018-07-26T17:09:50.511Z,4.97
2018-07-26T17:12:19.116Z,6.93
2018-07-26T17:14:47.615Z,7.07
2018-07-26T17:17:17.081Z,7.20
2018-07-26T17:19:45.458Z,5.43
2018-07-26T17:22:13.879Z,5.77
2018-07-26T17:24:42.356Z,5.93
2018-07-26T17:27:10.715Z,6.10
2018-07-26T17:29:39.632Z,7.27
2018-07-26T17:32:08.264Z,4.97
2018-07-26T17:34:36.752Z,6.53
2018-07-26T17:37:05.114Z,7.33
2018-07-26T17:39:33.647Z,10.03
2018-07-26T17:42:02.018Z,7.17
2018-07-26T17:44:30.398Z,6.03
2018-07-26T17:46:58.798Z,6.50
2018-07-26T17:49:27.828Z,6.27
2018-07-26T17:51:56.348Z,6.57
2018-07-26T17:54:25.149Z,9.87
2018-07-26T17:56:53.595Z,8.30
2018-07-26T17:59:21.929Z,7.27
2018-07-26T18:01:50.342Z,6.87
2018-07-26T18:04:18.751Z,6.40
2018-07-26T18:06:47.257Z,6.93
2018-07-26T18:09:15.495Z,12.43
2018-07-26T18:11:44.106Z,12.57
2018-07-26T18:14:12.504Z,10.23
2018-07-26T18:16:40.859Z,8.90
2018-07-26T18:19:09.283Z,15.73
2018-07-26T18:21:37.933Z,29.30
2018-07-26T18:24:06.969Z,18.30
2018-07-26T18:26:36.199Z,20.27
2018-07-26T18:29:04.824Z,11.97
2018-07-26T18:31:33.520Z,9.73
2018-07-26T18:34:01.897Z,12.23
2018-07-26T18:36:30.192Z,8.80
2018-07-26T18:38:59.577Z,8.73
2018-07-26T18:41:28.407Z,9.20
2018-07-26T18:43:56.932Z,10.77
2018-07-26T18:46:25.225Z,10.80
2018-07-26T18:48:53.660Z,7.00
2018-07-26T18:51:22.374Z,8.73
2018-07-26T18:53:50.819Z,9.60
2018-07-26T18:56:20.348Z,12.00
2018-07-26T18:58:48.899Z,9.20
2018-07-26T19:01:17.536Z,14.50
2018-07-26T19:03:45.940Z,6.87
2018-07-26T19:06:14.483Z,6.33
2018-07-26T19:08:43.189Z,9.97
2018-07-26T19:11:12.089Z,9.23
2018-07-26T19:13:40.667Z,8.30
2018-07-26T19:16:09.993Z,12.07
2018-07-26T19:18:38.480Z,7.40
2018-07-26T19:21:07.458Z,7.23
2018-07-26T19:23:36.068Z,9.37
2018-07-26T19:26:04.856Z,7.37
2018-07-26T19:28:33.507Z,7.90
2018-07-26T19:31:02.160Z,11.27
2018-07-26T19:33:30.902Z,8.10
2018-07-26T19:35:59.699Z,7.87
2018-07-26T19:38:28.183Z,9.47
2018-07-26T19:40:56.616Z,8.23
2018-07-26T19:43:25.354Z,16.27
2018-07-26T19:45:53.893Z,13.30
2018-07-26T19:48:22.712Z,9.67
2018-07-26T19:50:51.271Z,11.63
2018-07-26T19:53:20.041Z,10.63
2018-07-26T19:55:48.880Z,9.03
2018-07-26T19:58:17.248Z,9.07
2018-07-26T20:00:45.816Z,8.80
2018-07-26T20:03:14.834Z,10.47
2018-07-26T20:05:43.212Z,8.60
2018-07-26T20:08:11.714Z,11.30
2018-07-26T20:10:41.049Z,9.00
2018-07-26T20:13:09.810Z,10.63
2018-07-26T20:15:38.279Z,11.30
2018-07-26T20:18:06.860Z,12.07
2018-07-26T20:20:35.424Z,13.73
2018-07-26T20:23:04.735Z,9.67
2018-07-26T20:25:34.139Z,16.30
2018-07-26T20:28:02.781Z,14.47
2018-07-26T20:30:31.306Z,12.23
2018-07-26T20:33:01.571Z,10.77
2018-07-26T20:35:30.688Z,12.57
2018-07-26T20:37:59.281Z,11.67
2018-07-26T20:40:34.562Z,12.23
2018-07-26T20:43:03.109Z,12.90
2018-07-26T20:45:31.661Z,11.13
2018-07-26T20:48:00.126Z,11.57
2018-07-26T20:50:28.800Z,12.33
2018-07-26T20:52:57.645Z,13.13
2018-07-26T20:55:25.756Z,13.37
2018-07-26T20:57:54.184Z,15.43
2018-07-26T21:00:22.714Z,14.03
2018-07-26T21:02:52.536Z,16.03
2018-07-26T21:05:21.157Z,15.87
2018-07-26T21:07:49.595Z,15.87
2018-07-26T21:10:18.854Z,15.97
2018-07-26T21:12:47.278Z,12.67
2018-07-26T21:15:15.796Z,16.13
2018-07-26T21:17:44.521Z,13.10
2018-07-26T21:20:13.756Z,12.60
2018-07-26T21:22:42.673Z,12.30
2018-07-26T21:25:12.117Z,14.67
2018-07-26T21:27:40.985Z,12.47
2018-07-26T21:30:09.121Z,14.77
2018-07-26T21:32:38.983Z,14.23
2018-07-26T21:35:08.605Z,14.47
2018-07-26T21:37:37.540Z,13.80
2018-07-26T21:40:07.741Z,15.53
2018-07-26T21:42:37.375Z,17.13
2018-07-26T21:45:07.103Z,12.13
2018-07-26T21:47:36.092Z,59.60
2018-07-26T21:50:04.795Z,314.90
2018-07-26T21:52:33.175Z,449.60
2018-07-26T21:55:02.539Z,437.47
2018-07-26T21:57:31.008Z,368.77
2018-07-26T21:59:59.581Z,432.17
2018-07-26T22:02:28.146Z,428.77
2018-07-26T22:04:56.572Z,316.37
2018-07-26T22:07:24.964Z,278.13
2018-07-26T22:09:53.324Z,213.03
2018-07-26T22:12:21.709Z,181.47
2018-07-26T22:14:50.187Z,167.93
2018-07-26T22:17:18.933Z,131.50
2018-07-26T22:19:47.373Z,123.17
2018-07-26T22:22:16.332Z,100.37
2018-07-26T22:24:44.803Z,85.13
2018-07-26T22:27:13.288Z,76.83
2018-07-26T22:29:41.660Z,68.63
2018-07-26T22:32:10.169Z,61.73
2018-07-26T22:34:38.724Z,55.23
2018-07-26T22:37:07.658Z,52.57
2018-07-26T22:39:36.179Z,44.60
2018-07-26T22:42:04.567Z,43.70
2018-07-26T22:44:32.959Z,39.07
2018-07-26T22:47:01.324Z,34.40
2018-07-26T22:49:29.697Z,32.03
2018-07-26T22:51:58.131Z,29.37
2018-07-26T22:54:26.557Z,25.10
2018-07-26T22:56:54.912Z,25.27
2018-07-26T22:59:23.428Z,22.20
2018-07-26T23:01:51.805Z,19.57
2018-07-26T23:04:20.413Z,20.07
2018-07-26T23:06:48.792Z,22.90
2018-07-26T23:09:18.033Z,19.13
2018-07-26T23:11:46.616Z,18.10
2018-07-26T23:14:14.996Z,15.50
2018-07-26T23:16:43.404Z,17.47
2018-07-26T23:19:18.524Z,13.23
2018-07-26T23:21:46.665Z,13.83
2018-07-26T23:24:15.933Z,13.93
2018-07-26T23:26:44.365Z,12.27
2018-07-26T23:29:12.878Z,11.60
2018-07-26T23:31:41.271Z,12.27
2018-07-26T23:34:09.764Z,11.07
2018-07-26T23:36:38.242Z,9.90
2018-07-26T23:39:08.160Z,10.33
2018-07-26T23:41:36.658Z,11.10
2018-07-26T23:44:05.292Z,11.13
2018-07-26T23:46:34.259Z,9.10
2018-07-26T23:49:02.763Z,11.83
2018-07-26T23:51:31.241Z,9.07
2018-07-26T23:53:59.683Z,10.60
2018-07-26T23:56:28.198Z,8.50
2018-07-26T23:58:56.692Z,8.53
